Keyser, Indiana
Current Conditions -  °F | °C
As of 10:55 AM on Sunday 21 Dec 2014 (Local Time) from KGWB Reporting Station
Overcast Overcast  
Wind Chill: 32°   Ceiling: 6000
Heat Index: 32°   Visibility: 7mi
Dew Point: 27°   Wind: 3mph
Humidity: 80%   Direction: 180°S
Pressure: 30.29"   Gusts: NA
Location:  41.3275°N, 85.1414°W
Report Text: KGWB 211555Z AUTO 18003KT 7SM OVC060 00/M03 A3029 RMK AO2
Loading
Personal Weather Stations






























Interactive Weather Map New forecast layout! Learn more

10-Day Weather Forecast

Advertisements
Track Severe Weather on mobile